Time;durP1;ratioP1;P1;durP2;ratioP2;P2;SDS_P1;SDS_P2;PMS_P1;PMS_P2;Temp;Humidity;BMP_temperature;BMP_pressure;BME280_temperature;BME280_humidity;BME280_pressure;Samples;Min_cycle;Max_cycle;Signal;HPM_P1;HPM_P2
2021/10/13 00:01:10;;;;;;;19.6;16.6;;;;;;;7.922143;79.41179;98406;;;;
2021/10/13 00:11:13;;;;;;;24.8;20;;;;;;;7.991761;79.38275;98408;;;;
2021/10/13 00:21:08;;;;;;;24.7;19.65;;;;;;;7.921952;79.39316;98410;;;;
2021/10/13 00:31:06;;;;;;;22.7;18.9;;;;;;;7.821761;79.82877;98408;;;;
2021/10/13 00:41:05;;;;;;;19.55;16.8;;;;;;;7.721838;80.29079;98412;;;;
2021/10/13 00:51:04;;;;;;;18.6;13.4;;;;;;;7.662067;80.4752;98406;;;;
2021/10/13 01:01:02;;;;;;;13.85;10.8;;;;;;;7.551761;79.2114;98400;;;;
2021/10/13 01:11:00;;;;;;;13.3;9.1;;;;;;;7.441915;79.22014;98406;;;;
2021/10/13 01:20:59;;;;;;;14;9.6;;;;;;;7.431684;80.81095;98416;;;;
2021/10/13 01:30:57;;;;;;;14.7;11.1;;;;;;;7.401723;80.13062;98424;;;;
2021/10/13 01:40:56;;;;;;;12.1;10.9;;;;;;;7.381722;80.80144;98416;;;;
2021/10/13 01:50:55;;;;;;;12.5;10.55;;;;;;;7.462219;80.44348;98424;;;;
2021/10/13 02:10:52;;;;;;;11.8;8.4;;;;;;;7.481761;80.19288;98441;;;;
2021/10/13 02:20:50;;;;;;;12.7;9.25;;;;;;;7.501684;80.12579;98451;;;;
2021/10/13 02:30:50;;;;;;;17.1;13.2;;;;;;;7.402219;80.51784;98459;;;;
2021/10/13 02:40:47;;;;;;;18.9;14.25;;;;;;;7.441761;80.62826;98469;;;;
2021/10/13 02:50:46;;;;;;;19.4;15.4;;;;;;;7.461761;80.61037;98481;;;;
2021/10/13 03:00:45;;;;;;;17.2;14.5;;;;;;;7.492257;80.66301;98487;;;;
2021/10/13 03:10:43;;;;;;;15.2;13.7;;;;;;;7.412029;80.48036;98503;;;;
2021/10/13 03:20:41;;;;;;;12.5;10.2;;;;;;;7.231991;79.43958;98516;;;;
2021/10/13 03:30:40;;;;;;;11.46667;9.5;;;;;;;7.031723;79.61019;98528;;;;
2021/10/13 03:40:38;;;;;;;11.2;6.7;;;;;;;6.961838;79.74234;98538;;;;
2021/10/13 03:50:37;;;;;;;11.9;6.7;;;;;;;6.662219;79.93166;98546;;;;
2021/10/13 04:00:35;;;;;;;9;6.6;;;;;;;6.611914;80.3202;98557;;;;
2021/10/13 04:10:34;;;;;;;9.05;7.05;;;;;;;6.661838;80.62386;98565;;;;
2021/10/13 04:20:33;;;;;;;9.6;8.4;;;;;;;6.552029;80.18211;98585;;;;
2021/10/13 04:30:31;;;;;;;9.85;8.5;;;;;;;6.441915;79.73144;98591;;;;
2021/10/13 04:40:32;;;;;;;11.43333;8.066667;;;;;;;6.311876;80.13433;98595;;;;
2021/10/13 04:50:28;;;;;;;11.33333;7.466667;;;;;;;6.232105;79.28889;98591;;;;
2021/10/13 05:00:26;;;;;;;10.76667;7;;;;;;;6.221914;78.3672;98602;;;;
2021/10/13 05:20:26;;;;;;;11.9;7.2;;;;;;;6.202105;78.15372;98642;;;;
2021/10/13 05:30:21;;;;;;;12.05;8.45;;;;;;;6.171991;78.37575;98651;;;;
2021/10/13 05:50:20;;;;;;;10.6;9;;;;;;;6.251723;77.61606;98694;;;;
2021/10/13 06:00:16;;;;;;;10.26667;8.7;;;;;;;6.411876;75.72396;98704;;;;
2021/10/13 06:10:15;;;;;;;10.3;8.4;;;;;;;6.471799;75.51397;98726;;;;
2021/10/13 06:20:13;;;;;;;11.3;8.65;;;;;;;6.661761;76.63794;98737;;;;
2021/10/13 06:40:10;;;;;;;10.1;8.2;;;;;;;7.341837;75.17537;98785;;;;
2021/10/13 06:50:08;;;;;;;9.5;7.3;;;;;;;6.882219;74.95968;98787;;;;
2021/10/13 07:00:06;;;;;;;10.16667;8;;;;;;;7.352105;74.15874;98801;;;;
2021/10/13 07:10:05;;;;;;;12.7;11.4;;;;;;;7.371761;74.9035;98808;;;;
2021/10/13 07:20:04;;;;;;;16.8;13.2;;;;;;;7.432295;74.92358;98820;;;;
2021/10/13 07:30:02;;;;;;;18.05;12.75;;;;;;;7.931876;74.10308;98826;;;;
2021/10/13 07:40:00;;;;;;;17.46667;12.23333;;;;;;;8.121876;72.89892;98834;;;;
2021/10/13 07:49:59;;;;;;;16.46667;10.83333;;;;;;;8.051838;71.39785;98838;;;;
2021/10/13 08:00:00;;;;;;;15.03333;10.7;;;;;;;7.911761;72.5048;98842;;;;
2021/10/13 08:09:57;;;;;;;13.96667;10.13333;;;;;;;8.332067;71.50288;98832;;;;
2021/10/13 08:19:55;;;;;;;13.3;10.66667;;;;;;;8.641914;69.44624;98842;;;;
2021/10/13 08:29:54;;;;;;;12.13333;9.766666;;;;;;;8.981685;68.117;98836;;;;
2021/10/13 08:39:53;;;;;;;10.36667;8.933333;;;;;;;9.33199;68.08186;98844;;;;
2021/10/13 08:49:52;;;;;;;10.4;8.3;;;;;;;8.832067;66.99813;98846;;;;
2021/10/13 08:59:51;;;;;;;11.95;9;;;;;;;8.641876;67.08295;98855;;;;
2021/10/13 09:09:49;;;;;;;15;11.4;;;;;;;8.181761;68.69461;98865;;;;
2021/10/13 09:19:48;;;;;;;15.75;13.1;;;;;;;8.29199;71.5406;98875;;;;
2021/10/13 09:21:44;;;;;;;16.3;14.2;;;;;;;8.46;70.189;98873;;;;
2021/10/13 09:31:43;;;;;;;15.5;13;;;;;;;8.431723;69.51041;98885;;;;
2021/10/13 09:41:41;;;;;;;13.5;12.1;;;;;;;8.511838;70.10091;98887;;;;
2021/10/13 09:51:40;;;;;;;18.6;13.8;;;;;;;8.472067;71.69478;98906;;;;
2021/10/13 10:11:37;;;;;;;10.5;7.9;;;;;;;7.241838;76.35555;98899;;;;
2021/10/13 10:21:35;;;;;;;13.4;12;;;;;;;7.51;76.812;98908;;;;
2021/10/13 10:31:34;;;;;;;16.5;14;;;;;;;7.9;78.154;98904;;;;
2021/10/13 10:41:33;;;;;;;17.6;15.6;;;;;;;9.012181;74.32809;98895;;;;
2021/10/13 10:51:31;;;;;;;18.8;16.8;;;;;;;9.43;73.148;98897;;;;
2021/10/13 11:01:30;;;;;;;19.9;17.3;;;;;;;9.112257;72.6639;98906;;;;
2021/10/13 11:21:28;;;;;;;17.8;16;;;;;;;10.45214;68.88245;98912;;;;
2021/10/13 11:31:27;;;;;;;17.3;15.35;;;;;;;9.731953;68.63516;98900;;;;
2021/10/13 11:51:24;;;;;;;10.2;9.1;;;;;;;9.31;65.88;98908;;;;
2021/10/13 12:11:24;;;;;;;11.5;10;;;;;;;9.04176;68.00835;98912;;;;
2021/10/13 12:31:19;;;;;;;15.1;9.9;;;;;;;9.361723;68.83424;98916;;;;
2021/10/13 12:41:18;;;;;;;8.4;6.7;;;;;;;9.17;66.698;98914;;;;
2021/10/13 13:01:16;;;;;;;13.6;10.4;;;;;;;9.65;67.717;98926;;;;
2021/10/13 13:11:15;;;;;;;14.25;10.7;;;;;;;10.22191;67.59579;98924;;;;
2021/10/13 13:21:14;;;;;;;14.93333;10.53333;;;;;;;10.05168;65.61623;98932;;;;
2021/10/13 13:31:13;;;;;;;13.46667;9;;;;;;;9.341684;67.52132;98944;;;;
2021/10/13 13:41:12;;;;;;;12.8;8;;;;;;;9.511799;68.41671;98955;;;;
2021/10/13 13:51:11;;;;;;;8.3;6.2;;;;;;;10.15211;68.60703;98967;;;;
2021/10/13 14:01:11;;;;;;;10;6.8;;;;;;;9.951761;69.31964;98965;;;;
2021/10/13 14:31:08;;;;;;;10;7.2;;;;;;;8.931876;72.95222;98988;;;;
2021/10/13 14:41:05;;;;;;;7;5.6;;;;;;;8.661685;71.2991;99000;;;;
2021/10/13 14:51:04;;;;;;;9.3;7.6;;;;;;;8.661723;71.84222;99008;;;;
2021/10/13 15:01:03;;;;;;;15;12.4;;;;;;;8.462029;73.23277;99018;;;;
2021/10/13 15:11:01;;;;;;;16.3;14.6;;;;;;;8.421952;75.33627;99028;;;;
2021/10/13 15:21:00;;;;;;;16.25;13.45;;;;;;;8.331876;75.47446;99032;;;;
2021/10/13 15:30:58;;;;;;;15.4;13.9;;;;;;;7.982143;75.80753;99040;;;;
2021/10/13 15:41:04;;;;;;;21.8;19.7;;;;;;;7.642257;77.47966;99063;;;;
2021/10/13 15:50:56;;;;;;;21.85;18.95;;;;;;;7.471761;78.25319;99069;;;;
2021/10/13 16:00:54;;;;;;;19.4;17.5;;;;;;;7.492029;78.69866;99077;;;;
2021/10/13 16:20:52;;;;;;;17.9;13.9;;;;;;;7.351876;77.38286;99112;;;;
2021/10/13 16:40:49;;;;;;;9.6;8;;;;;;;6.652219;77.32827;99126;;;;
2021/10/13 16:50:48;;;;;;;10.2;7.55;;;;;;;6.132067;77.06324;99132;;;;
2021/10/13 17:00:46;;;;;;;11.26667;8.866667;;;;;;;5.531761;78.43061;99140;;;;
2021/10/13 17:10:45;;;;;;;24.6;22.2;;;;;;;5.432029;80.71037;99149;;;;
2021/10/13 17:20:43;;;;;;;26.15;22.15;;;;;;;5.591799;81.5667;99142;;;;
2021/10/13 17:30:41;;;;;;;26.93333;23.26667;;;;;;;5.821952;82.60017;99154;;;;
2021/10/13 17:40:40;;;;;;;25.3;23;;;;;;;5.941876;81.93201;99163;;;;
2021/10/13 17:50:38;;;;;;;26.8;24.15;;;;;;;5.921761;81.73383;99179;;;;
2021/10/13 18:00:37;;;;;;;28.66667;25.6;;;;;;;5.961761;82.44784;99183;;;;
2021/10/13 18:10:35;;;;;;;30.4;27.1;;;;;;;5.951799;82.02865;99193;;;;
2021/10/13 18:20:41;;;;;;;30.73333;27.43333;;;;;;;5.942105;81.69487;99200;;;;
2021/10/13 18:30:32;;;;;;;27.7;23.6;;;;;;;5.951684;81.94222;99208;;;;
2021/10/13 18:50:29;;;;;;;25.2;21.4;;;;;;;5.982143;80.90132;99230;;;;
2021/10/13 19:00:27;;;;;;;24.6;22.1;;;;;;;6.002219;80.91143;99243;;;;
2021/10/13 19:10:25;;;;;;;27.2;22;;;;;;;5.82;80.756;99249;;;;
2021/10/13 19:30:22;;;;;;;22.2;19.1;;;;;;;5.882219;79.91765;99253;;;;
2021/10/13 19:40:22;;;;;;;24.6;19.7;;;;;;;5.872295;79.85791;99261;;;;
2021/10/13 19:50:19;;;;;;;22.25;18.75;;;;;;;5.921953;79.634;99261;;;;
2021/10/13 20:00:17;;;;;;;18.9;16.8;;;;;;;5.951838;79.61341;99277;;;;
2021/10/13 20:10:22;;;;;;;25.5;20.5;;;;;;;5.972257;79.80822;99279;;;;
2021/10/13 20:20:15;;;;;;;26.6;21.1;;;;;;;5.942143;80.13269;99287;;;;
2021/10/13 20:40:11;;;;;;;27.7;23.7;;;;;;;5.982105;80.53325;99301;;;;
2021/10/13 20:50:09;;;;;;;28.75;25.25;;;;;;;5.9818;80.81331;99293;;;;
2021/10/13 21:10:07;;;;;;;29.8;26;;;;;;;6.021761;80.64514;99293;;;;
2021/10/13 21:20:05;;;;;;;29.5;26.5;;;;;;;6.041914;80.83587;99293;;;;
2021/10/13 21:30:03;;;;;;;31.6;28.3;;;;;;;6.091914;81.05954;99301;;;;
2021/10/13 21:40:02;;;;;;;36;29.4;;;;;;;6.141799;81.25833;99297;;;;
2021/10/13 21:50:00;;;;;;;37.15;29.4;;;;;;;6.11199;81.61096;99291;;;;
2021/10/13 22:09:59;;;;;;;37;32;;;;;;;6.262067;81.60817;99287;;;;
2021/10/13 22:19:56;;;;;;;40.6;35.75;;;;;;;6.302105;81.60445;99289;;;;
2021/10/13 22:29:54;;;;;;;37.4;33.5;;;;;;;6.312105;81.67894;99295;;;;
2021/10/13 22:39:53;;;;;;;39.35;35.25;;;;;;;6.281914;81.6658;99301;;;;
2021/10/13 22:49:51;;;;;;;39.13333;33.8;;;;;;;6.291723;81.8148;99307;;;;
2021/10/13 22:59:50;;;;;;;34.7;31.4;;;;;;;6.302181;81.67617;99312;;;;
2021/10/13 23:09:48;;;;;;;38.5;32;;;;;;;6.261684;81.93262;99312;;;;
2021/10/13 23:19:46;;;;;;;38.35;32.8;;;;;;;6.302105;81.47655;99314;;;;
2021/10/13 23:29:45;;;;;;;35.6;31.7;;;;;;;6.261914;81.53233;99312;;;;
2021/10/13 23:39:45;;;;;;;41.8;33.4;;;;;;;6.271876;81.56565;99312;;;;
2021/10/13 23:49:42;;;;;;;37.5;34;;;;;;;6.231761;81.32313;99314;;;;
2021/10/13 23:59:40;;;;;;;39.9;34.85;;;;;;;6.181952;81.51455;99318;;;;
